sensor_id;sensor_type;location;lat;lon;timestamp;P1;P2;P0
82151;PMS5003;71721;47.904;-122.188;2023-08-30T00:01:35;5;5;
82151;PMS5003;71721;47.904;-122.188;2023-08-30T00:04:00;6;6;
82151;PMS5003;71721;47.904;-122.188;2023-08-30T00:06:26;5;5;
82151;PMS5003;71721;47.904;-122.188;2023-08-30T00:08:51;4;4;
82151;PMS5003;71721;47.904;-122.188;2023-08-30T00:11:17;6;6;
82151;PMS5003;71721;47.904;-122.188;2023-08-30T00:13:42;6;6;
82151;PMS5003;71721;47.904;-122.188;2023-08-30T00:16:07;5;5;
82151;PMS5003;71721;47.904;-122.188;2023-08-30T00:18:32;6;6;
82151;PMS5003;71721;47.904;-122.188;2023-08-30T00:20:58;7;7;
82151;PMS5003;71721;47.904;-122.188;2023-08-30T00:23:24;7;7;
82151;PMS5003;71721;47.904;-122.188;2023-08-30T00:25:48;5;5;
82151;PMS5003;71721;47.904;-122.188;2023-08-30T00:28:14;9;9;
82151;PMS5003;71721;47.904;-122.188;2023-08-30T00:30:39;8;7;
82151;PMS5003;71721;47.904;-122.188;2023-08-30T00:33:04;5;5;
82151;PMS5003;71721;47.904;-122.188;2023-08-30T00:35:30;3;3;
82151;PMS5003;71721;47.904;-122.188;2023-08-30T00:37:55;6;6;
82151;PMS5003;71721;47.904;-122.188;2023-08-30T00:40:22;6;6;
82151;PMS5003;71721;47.904;-122.188;2023-08-30T00:42:46;5;5;
82151;PMS5003;71721;47.904;-122.188;2023-08-30T00:45:11;6;6;
82151;PMS5003;71721;47.904;-122.188;2023-08-30T00:47:36;5;5;
82151;PMS5003;71721;47.904;-122.188;2023-08-30T00:50:02;5;5;
82151;PMS5003;71721;47.904;-122.188;2023-08-30T00:52:27;4;4;
82151;PMS5003;71721;47.904;-122.188;2023-08-30T00:54:52;6;6;
82151;PMS5003;71721;47.904;-122.188;2023-08-30T00:57:18;7;7;
82151;PMS5003;71721;47.904;-122.188;2023-08-30T00:59:43;8;8;
82151;PMS5003;71721;47.904;-122.188;2023-08-30T01:02:13;8;8;
82151;PMS5003;71721;47.904;-122.188;2023-08-30T01:04:34;7;7;
82151;PMS5003;71721;47.904;-122.188;2023-08-30T01:07:00;7;7;
82151;PMS5003;71721;47.904;-122.188;2023-08-30T01:09:25;7;6;
82151;PMS5003;71721;47.904;-122.188;2023-08-30T01:11:50;9;9;
82151;PMS5003;71721;47.904;-122.188;2023-08-30T01:14:16;8;8;
82151;PMS5003;71721;47.904;-122.188;2023-08-30T01:16:41;9;8;
82151;PMS5003;71721;47.904;-122.188;2023-08-30T01:19:12;7;7;
82151;PMS5003;71721;47.904;-122.188;2023-08-30T01:21:40;8;8;
82151;PMS5003;71721;47.904;-122.188;2023-08-30T01:23:58;5;5;
82151;PMS5003;71721;47.904;-122.188;2023-08-30T01:26:32;6;6;
82151;PMS5003;71721;47.904;-122.188;2023-08-30T01:28:47;8;7;
82151;PMS5003;71721;47.904;-122.188;2023-08-30T01:31:12;8;8;
82151;PMS5003;71721;47.904;-122.188;2023-08-30T01:33:38;6;6;
82151;PMS5003;71721;47.904;-122.188;2023-08-30T01:36:03;9;9;
82151;PMS5003;71721;47.904;-122.188;2023-08-30T01:38:29;8;8;
82151;PMS5003;71721;47.904;-122.188;2023-08-30T01:40:54;9;8;
82151;PMS5003;71721;47.904;-122.188;2023-08-30T01:43:19;6;6;
82151;PMS5003;71721;47.904;-122.188;2023-08-30T01:45:44;7;7;
82151;PMS5003;71721;47.904;-122.188;2023-08-30T01:48:11;9;9;
82151;PMS5003;71721;47.904;-122.188;2023-08-30T01:50:35;6;6;
82151;PMS5003;71721;47.904;-122.188;2023-08-30T01:53:00;7;7;
82151;PMS5003;71721;47.904;-122.188;2023-08-30T01:55:31;6;6;
82151;PMS5003;71721;47.904;-122.188;2023-08-30T01:57:51;8;8;
82151;PMS5003;71721;47.904;-122.188;2023-08-30T02:00:17;4;4;
82151;PMS5003;71721;47.904;-122.188;2023-08-30T02:02:42;8;7;
82151;PMS5003;71721;47.904;-122.188;2023-08-30T02:05:07;4;4;
82151;PMS5003;71721;47.904;-122.188;2023-08-30T02:07:36;5;5;
82151;PMS5003;71721;47.904;-122.188;2023-08-30T02:10:00;8;6;
82151;PMS5003;71721;47.904;-122.188;2023-08-30T02:12:24;5;5;
82151;PMS5003;71721;47.904;-122.188;2023-08-30T02:14:49;5;5;
82151;PMS5003;71721;47.904;-122.188;2023-08-30T02:17:15;4;4;
82151;PMS5003;71721;47.904;-122.188;2023-08-30T02:19:39;7;7;
82151;PMS5003;71721;47.904;-122.188;2023-08-30T02:22:05;7;7;
82151;PMS5003;71721;47.904;-122.188;2023-08-30T02:24:30;9;9;
82151;PMS5003;71721;47.904;-122.188;2023-08-30T02:26:57;7;7;
82151;PMS5003;71721;47.904;-122.188;2023-08-30T02:29:21;7;7;
82151;PMS5003;71721;47.904;-122.188;2023-08-30T02:31:46;7;7;
82151;PMS5003;71721;47.904;-122.188;2023-08-30T02:34:11;8;8;
82151;PMS5003;71721;47.904;-122.188;2023-08-30T02:36:37;8;8;
82151;PMS5003;71721;47.904;-122.188;2023-08-30T02:39:02;8;8;
82151;PMS5003;71721;47.904;-122.188;2023-08-30T02:41:37;7;7;
82151;PMS5003;71721;47.904;-122.188;2023-08-30T02:43:53;7;7;
82151;PMS5003;71721;47.904;-122.188;2023-08-30T02:46:18;4;4;
82151;PMS5003;71721;47.904;-122.188;2023-08-30T02:48:44;6;6;
82151;PMS5003;71721;47.904;-122.188;2023-08-30T02:51:09;7;6;
82151;PMS5003;71721;47.904;-122.188;2023-08-30T02:53:34;7;7;
82151;PMS5003;71721;47.904;-122.188;2023-08-30T02:56:00;6;5;
82151;PMS5003;71721;47.904;-122.188;2023-08-30T02:58:25;6;5;
82151;PMS5003;71721;47.904;-122.188;2023-08-30T03:00:51;9;8;
82151;PMS5003;71721;47.904;-122.188;2023-08-30T03:03:16;6;6;
82151;PMS5003;71721;47.904;-122.188;2023-08-30T03:05:41;8;8;
82151;PMS5003;71721;47.904;-122.188;2023-08-30T03:08:06;7;6;
82151;PMS5003;71721;47.904;-122.188;2023-08-30T03:10:32;4;4;
82151;PMS5003;71721;47.904;-122.188;2023-08-30T03:12:58;7;5;
82151;PMS5003;71721;47.904;-122.188;2023-08-30T03:15:23;7;7;
82151;PMS5003;71721;47.904;-122.188;2023-08-30T03:17:48;5;5;
82151;PMS5003;71721;47.904;-122.188;2023-08-30T03:20:13;6;5;
82151;PMS5003;71721;47.904;-122.188;2023-08-30T03:22:39;5;5;
82151;PMS5003;71721;47.904;-122.188;2023-08-30T03:25:04;5;5;
82151;PMS5003;71721;47.904;-122.188;2023-08-30T03:27:30;6;6;
82151;PMS5003;71721;47.904;-122.188;2023-08-30T03:29:55;6;6;
82151;PMS5003;71721;47.904;-122.188;2023-08-30T03:32:20;6;6;
82151;PMS5003;71721;47.904;-122.188;2023-08-30T03:34:47;5;5;
82151;PMS5003;71721;47.904;-122.188;2023-08-30T03:37:11;5;5;
82151;PMS5003;71721;47.904;-122.188;2023-08-30T03:39:37;5;5;
82151;PMS5003;71721;47.904;-122.188;2023-08-30T03:42:02;4;4;
82151;PMS5003;71721;47.904;-122.188;2023-08-30T03:44:27;3;3;
82151;PMS5003;71721;47.904;-122.188;2023-08-30T03:46:52;5;5;
82151;PMS5003;71721;47.904;-122.188;2023-08-30T03:49:18;5;5;
82151;PMS5003;71721;47.904;-122.188;2023-08-30T03:51:43;5;5;
82151;PMS5003;71721;47.904;-122.188;2023-08-30T03:54:09;5;4;
82151;PMS5003;71721;47.904;-122.188;2023-08-30T03:56:34;6;6;
82151;PMS5003;71721;47.904;-122.188;2023-08-30T03:58:59;5;5;
82151;PMS5003;71721;47.904;-122.188;2023-08-30T04:01:25;5;5;
82151;PMS5003;71721;47.904;-122.188;2023-08-30T04:03:50;7;7;
82151;PMS5003;71721;47.904;-122.188;2023-08-30T04:06:16;3;3;
82151;PMS5003;71721;47.904;-122.188;2023-08-30T04:08:41;3;3;
82151;PMS5003;71721;47.904;-122.188;2023-08-30T04:11:06;5;5;
82151;PMS5003;71721;47.904;-122.188;2023-08-30T04:13:32;10;8;
82151;PMS5003;71721;47.904;-122.188;2023-08-30T04:15:57;6;6;
82151;PMS5003;71721;47.904;-122.188;2023-08-30T04:18:22;5;4;
82151;PMS5003;71721;47.904;-122.188;2023-08-30T04:20:47;6;6;
82151;PMS5003;71721;47.904;-122.188;2023-08-30T04:23:14;8;8;
82151;PMS5003;71721;47.904;-122.188;2023-08-30T04:25:44;5;5;
82151;PMS5003;71721;47.904;-122.188;2023-08-30T04:28:19;6;5;
82151;PMS5003;71721;47.904;-122.188;2023-08-30T04:30:46;5;5;
82151;PMS5003;71721;47.904;-122.188;2023-08-30T04:32:59;5;5;
82151;PMS5003;71721;47.904;-122.188;2023-08-30T04:35:24;5;5;
82151;PMS5003;71721;47.904;-122.188;2023-08-30T04:37:49;6;5;
82151;PMS5003;71721;47.904;-122.188;2023-08-30T04:40:15;5;5;
82151;PMS5003;71721;47.904;-122.188;2023-08-30T04:42:40;6;5;
82151;PMS5003;71721;47.904;-122.188;2023-08-30T04:45:06;3;3;
82151;PMS5003;71721;47.904;-122.188;2023-08-30T04:47:36;5;4;
82151;PMS5003;71721;47.904;-122.188;2023-08-30T04:49:56;4;4;
82151;PMS5003;71721;47.904;-122.188;2023-08-30T04:52:21;4;4;
82151;PMS5003;71721;47.904;-122.188;2023-08-30T04:54:47;5;5;
82151;PMS5003;71721;47.904;-122.188;2023-08-30T04:57:14;4;4;
82151;PMS5003;71721;47.904;-122.188;2023-08-30T04:59:37;5;4;
82151;PMS5003;71721;47.904;-122.188;2023-08-30T05:02:04;4;4;
82151;PMS5003;71721;47.904;-122.188;2023-08-30T05:04:28;4;4;
82151;PMS5003;71721;47.904;-122.188;2023-08-30T05:06:54;4;3;
82151;PMS5003;71721;47.904;-122.188;2023-08-30T05:09:19;5;5;
82151;PMS5003;71721;47.904;-122.188;2023-08-30T05:11:45;3;3;
82151;PMS5003;71721;47.904;-122.188;2023-08-30T05:14:10;3;3;
82151;PMS5003;71721;47.904;-122.188;2023-08-30T05:16:35;5;5;
82151;PMS5003;71721;47.904;-122.188;2023-08-30T05:19:00;5;4;
82151;PMS5003;71721;47.904;-122.188;2023-08-30T05:21:26;3;3;
82151;PMS5003;71721;47.904;-122.188;2023-08-30T05:23:51;4;3;
82151;PMS5003;71721;47.904;-122.188;2023-08-30T05:26:17;4;4;
82151;PMS5003;71721;47.904;-122.188;2023-08-30T05:28:43;3;3;
82151;PMS5003;71721;47.904;-122.188;2023-08-30T05:31:07;3;3;
82151;PMS5003;71721;47.904;-122.188;2023-08-30T05:33:38;4;4;
82151;PMS5003;71721;47.904;-122.188;2023-08-30T05:35:58;6;6;
82151;PMS5003;71721;47.904;-122.188;2023-08-30T05:38:23;3;3;
82151;PMS5003;71721;47.904;-122.188;2023-08-30T05:40:49;4;4;
82151;PMS5003;71721;47.904;-122.188;2023-08-30T05:43:14;2;2;
82151;PMS5003;71721;47.904;-122.188;2023-08-30T05:45:39;4;4;
82151;PMS5003;71721;47.904;-122.188;2023-08-30T05:48:05;4;3;
82151;PMS5003;71721;47.904;-122.188;2023-08-30T05:50:30;3;3;
82151;PMS5003;71721;47.904;-122.188;2023-08-30T05:52:55;4;4;
82151;PMS5003;71721;47.904;-122.188;2023-08-30T05:55:21;5;5;
82151;PMS5003;71721;47.904;-122.188;2023-08-30T05:57:46;7;7;
82151;PMS5003;71721;47.904;-122.188;2023-08-30T06:00:12;6;6;
82151;PMS5003;71721;47.904;-122.188;2023-08-30T06:02:37;7;7;
82151;PMS5003;71721;47.904;-122.188;2023-08-30T06:05:03;7;7;
82151;PMS5003;71721;47.904;-122.188;2023-08-30T06:07:39;7;7;
82151;PMS5003;71721;47.904;-122.188;2023-08-30T06:09:53;5;5;
82151;PMS5003;71721;47.904;-122.188;2023-08-30T06:12:19;7;7;
82151;PMS5003;71721;47.904;-122.188;2023-08-30T06:14:45;8;8;
82151;PMS5003;71721;47.904;-122.188;2023-08-30T06:17:10;7;7;
82151;PMS5003;71721;47.904;-122.188;2023-08-30T06:19:35;7;7;
82151;PMS5003;71721;47.904;-122.188;2023-08-30T06:22:00;9;9;
82151;PMS5003;71721;47.904;-122.188;2023-08-30T06:24:25;9;9;
82151;PMS5003;71721;47.904;-122.188;2023-08-30T06:26:50;6;5;
82151;PMS5003;71721;47.904;-122.188;2023-08-30T06:29:16;10;9;
82151;PMS5003;71721;47.904;-122.188;2023-08-30T06:31:41;9;9;
82151;PMS5003;71721;47.904;-122.188;2023-08-30T06:34:07;8;8;
82151;PMS5003;71721;47.904;-122.188;2023-08-30T06:36:32;11;10;
82151;PMS5003;71721;47.904;-122.188;2023-08-30T06:38:57;9;9;
82151;PMS5003;71721;47.904;-122.188;2023-08-30T06:41:23;9;9;
82151;PMS5003;71721;47.904;-122.188;2023-08-30T06:43:49;7;7;
82151;PMS5003;71721;47.904;-122.188;2023-08-30T06:46:13;7;7;
82151;PMS5003;71721;47.904;-122.188;2023-08-30T06:48:39;7;7;
82151;PMS5003;71721;47.904;-122.188;2023-08-30T06:51:06;9;9;
82151;PMS5003;71721;47.904;-122.188;2023-08-30T06:53:35;11;10;
82151;PMS5003;71721;47.904;-122.188;2023-08-30T06:55:58;8;8;
82151;PMS5003;71721;47.904;-122.188;2023-08-30T06:58:20;9;9;
82151;PMS5003;71721;47.904;-122.188;2023-08-30T07:00:46;8;7;
82151;PMS5003;71721;47.904;-122.188;2023-08-30T07:03:11;9;9;
82151;PMS5003;71721;47.904;-122.188;2023-08-30T07:05:37;8;7;
82151;PMS5003;71721;47.904;-122.188;2023-08-30T07:08:02;7;7;
82151;PMS5003;71721;47.904;-122.188;2023-08-30T07:10:27;7;7;
82151;PMS5003;71721;47.904;-122.188;2023-08-30T07:12:52;9;9;
82151;PMS5003;71721;47.904;-122.188;2023-08-30T07:15:18;6;6;
82151;PMS5003;71721;47.904;-122.188;2023-08-30T07:17:43;7;7;
82151;PMS5003;71721;47.904;-122.188;2023-08-30T07:20:09;7;7;
82151;PMS5003;71721;47.904;-122.188;2023-08-30T07:22:35;7;7;
82151;PMS5003;71721;47.904;-122.188;2023-08-30T07:24:59;10;10;
82151;PMS5003;71721;47.904;-122.188;2023-08-30T07:27:24;9;8;
82151;PMS5003;71721;47.904;-122.188;2023-08-30T07:29:49;6;6;
82151;PMS5003;71721;47.904;-122.188;2023-08-30T07:32:15;9;8;
82151;PMS5003;71721;47.904;-122.188;2023-08-30T07:34:40;7;7;
82151;PMS5003;71721;47.904;-122.188;2023-08-30T07:37:05;8;8;
82151;PMS5003;71721;47.904;-122.188;2023-08-30T07:39:31;7;7;
82151;PMS5003;71721;47.904;-122.188;2023-08-30T07:41:56;12;11;
82151;PMS5003;71721;47.904;-122.188;2023-08-30T07:44:21;8;8;
82151;PMS5003;71721;47.904;-122.188;2023-08-30T07:46:47;8;7;
82151;PMS5003;71721;47.904;-122.188;2023-08-30T07:49:12;9;8;
82151;PMS5003;71721;47.904;-122.188;2023-08-30T07:51:37;8;7;
82151;PMS5003;71721;47.904;-122.188;2023-08-30T07:54:03;7;7;
82151;PMS5003;71721;47.904;-122.188;2023-08-30T07:56:28;8;8;
82151;PMS5003;71721;47.904;-122.188;2023-08-30T07:58:54;6;6;
82151;PMS5003;71721;47.904;-122.188;2023-08-30T08:01:19;6;6;
82151;PMS5003;71721;47.904;-122.188;2023-08-30T08:03:44;7;7;
82151;PMS5003;71721;47.904;-122.188;2023-08-30T08:06:10;7;7;
82151;PMS5003;71721;47.904;-122.188;2023-08-30T08:08:35;7;7;
82151;PMS5003;71721;47.904;-122.188;2023-08-30T08:11:00;7;7;
82151;PMS5003;71721;47.904;-122.188;2023-08-30T08:13:25;8;8;
82151;PMS5003;71721;47.904;-122.188;2023-08-30T08:15:51;7;7;
82151;PMS5003;71721;47.904;-122.188;2023-08-30T08:18:16;9;9;
82151;PMS5003;71721;47.904;-122.188;2023-08-30T08:20:41;7;7;
82151;PMS5003;71721;47.904;-122.188;2023-08-30T08:23:07;8;7;
82151;PMS5003;71721;47.904;-122.188;2023-08-30T08:25:33;6;6;
82151;PMS5003;71721;47.904;-122.188;2023-08-30T08:27:58;7;7;
82151;PMS5003;71721;47.904;-122.188;2023-08-30T08:30:23;7;7;
82151;PMS5003;71721;47.904;-122.188;2023-08-30T08:32:48;8;7;
82151;PMS5003;71721;47.904;-122.188;2023-08-30T08:35:14;5;5;
82151;PMS5003;71721;47.904;-122.188;2023-08-30T08:37:39;7;7;
82151;PMS5003;71721;47.904;-122.188;2023-08-30T08:40:04;7;6;
82151;PMS5003;71721;47.904;-122.188;2023-08-30T08:42:31;8;7;
82151;PMS5003;71721;47.904;-122.188;2023-08-30T08:44:56;6;6;
82151;PMS5003;71721;47.904;-122.188;2023-08-30T08:47:20;7;6;
82151;PMS5003;71721;47.904;-122.188;2023-08-30T08:49:46;6;6;
82151;PMS5003;71721;47.904;-122.188;2023-08-30T08:52:19;4;4;
82151;PMS5003;71721;47.904;-122.188;2023-08-30T08:54:36;9;9;
82151;PMS5003;71721;47.904;-122.188;2023-08-30T08:57:02;9;8;
82151;PMS5003;71721;47.904;-122.188;2023-08-30T08:59:27;6;6;
82151;PMS5003;71721;47.904;-122.188;2023-08-30T09:01:52;6;6;
82151;PMS5003;71721;47.904;-122.188;2023-08-30T09:04:19;6;6;
82151;PMS5003;71721;47.904;-122.188;2023-08-30T09:06:43;7;6;
82151;PMS5003;71721;47.904;-122.188;2023-08-30T09:09:09;7;6;
82151;PMS5003;71721;47.904;-122.188;2023-08-30T09:11:34;6;6;
82151;PMS5003;71721;47.904;-122.188;2023-08-30T09:13:59;7;6;
82151;PMS5003;71721;47.904;-122.188;2023-08-30T09:16:24;7;7;
82151;PMS5003;71721;47.904;-122.188;2023-08-30T09:19:02;4;4;
82151;PMS5003;71721;47.904;-122.188;2023-08-30T09:21:15;5;5;
82151;PMS5003;71721;47.904;-122.188;2023-08-30T09:23:40;9;9;
82151;PMS5003;71721;47.904;-122.188;2023-08-30T09:26:05;10;9;
82151;PMS5003;71721;47.904;-122.188;2023-08-30T09:28:31;9;9;
82151;PMS5003;71721;47.904;-122.188;2023-08-30T09:30:57;8;8;
82151;PMS5003;71721;47.904;-122.188;2023-08-30T09:33:21;12;12;
82151;PMS5003;71721;47.904;-122.188;2023-08-30T09:35:46;9;9;
82151;PMS5003;71721;47.904;-122.188;2023-08-30T09:38:17;11;10;
82151;PMS5003;71721;47.904;-122.188;2023-08-30T09:40:37;12;12;
82151;PMS5003;71721;47.904;-122.188;2023-08-30T09:43:02;10;9;
82151;PMS5003;71721;47.904;-122.188;2023-08-30T09:45:33;10;9;
82151;PMS5003;71721;47.904;-122.188;2023-08-30T09:48:00;11;10;
82151;PMS5003;71721;47.904;-122.188;2023-08-30T09:50:24;9;9;
82151;PMS5003;71721;47.904;-122.188;2023-08-30T09:52:49;12;12;
82151;PMS5003;71721;47.904;-122.188;2023-08-30T09:55:19;11;9;
82151;PMS5003;71721;47.904;-122.188;2023-08-30T09:57:40;9;9;
82151;PMS5003;71721;47.904;-122.188;2023-08-30T10:00:06;14;14;
82151;PMS5003;71721;47.904;-122.188;2023-08-30T10:02:31;11;10;
82151;PMS5003;71721;47.904;-122.188;2023-08-30T10:04:55;12;11;
82151;PMS5003;71721;47.904;-122.188;2023-08-30T10:07:21;11;10;
82151;PMS5003;71721;47.904;-122.188;2023-08-30T10:09:46;11;11;
82151;PMS5003;71721;47.904;-122.188;2023-08-30T10:12:11;12;12;
82151;PMS5003;71721;47.904;-122.188;2023-08-30T10:14:37;10;10;
82151;PMS5003;71721;47.904;-122.188;2023-08-30T10:17:06;8;8;
82151;PMS5003;71721;47.904;-122.188;2023-08-30T10:19:27;13;12;
82151;PMS5003;71721;47.904;-122.188;2023-08-30T10:21:53;9;9;
82151;PMS5003;71721;47.904;-122.188;2023-08-30T10:24:18;9;9;
82151;PMS5003;71721;47.904;-122.188;2023-08-30T10:26:44;10;10;
82151;PMS5003;71721;47.904;-122.188;2023-08-30T10:29:11;9;9;
82151;PMS5003;71721;47.904;-122.188;2023-08-30T10:31:32;10;10;
82151;PMS5003;71721;47.904;-122.188;2023-08-30T10:33:58;12;12;
82151;PMS5003;71721;47.904;-122.188;2023-08-30T10:36:23;11;10;
82151;PMS5003;71721;47.904;-122.188;2023-08-30T10:38:49;13;13;
82151;PMS5003;71721;47.904;-122.188;2023-08-30T10:41:19;13;12;
82151;PMS5003;71721;47.904;-122.188;2023-08-30T10:43:39;12;11;
82151;PMS5003;71721;47.904;-122.188;2023-08-30T10:46:09;12;12;
82151;PMS5003;71721;47.904;-122.188;2023-08-30T10:48:38;11;10;
82151;PMS5003;71721;47.904;-122.188;2023-08-30T10:50:56;18;14;
82151;PMS5003;71721;47.904;-122.188;2023-08-30T10:53:29;12;12;
82151;PMS5003;71721;47.904;-122.188;2023-08-30T10:56:02;12;12;
82151;PMS5003;71721;47.904;-122.188;2023-08-30T10:58:18;10;10;
82151;PMS5003;71721;47.904;-122.188;2023-08-30T11:00:38;12;12;
82151;PMS5003;71721;47.904;-122.188;2023-08-30T11:03:03;12;12;
82151;PMS5003;71721;47.904;-122.188;2023-08-30T11:05:29;14;13;
82151;PMS5003;71721;47.904;-122.188;2023-08-30T11:07:54;13;13;
82151;PMS5003;71721;47.904;-122.188;2023-08-30T11:10:20;8;8;
82151;PMS5003;71721;47.904;-122.188;2023-08-30T11:12:45;11;10;
82151;PMS5003;71721;47.904;-122.188;2023-08-30T11:15:10;10;10;
82151;PMS5003;71721;47.904;-122.188;2023-08-30T11:17:40;10;10;
82151;PMS5003;71721;47.904;-122.188;2023-08-30T11:20:05;9;9;
82151;PMS5003;71721;47.904;-122.188;2023-08-30T11:22:26;12;12;
82151;PMS5003;71721;47.904;-122.188;2023-08-30T11:24:56;15;14;
82151;PMS5003;71721;47.904;-122.188;2023-08-30T11:27:16;12;11;
82151;PMS5003;71721;47.904;-122.188;2023-08-30T11:29:41;9;9;
82151;PMS5003;71721;47.904;-122.188;2023-08-30T11:32:07;10;10;
82151;PMS5003;71721;47.904;-122.188;2023-08-30T11:34:32;10;10;
82151;PMS5003;71721;47.904;-122.188;2023-08-30T11:36:57;14;13;
82151;PMS5003;71721;47.904;-122.188;2023-08-30T11:39:24;9;9;
82151;PMS5003;71721;47.904;-122.188;2023-08-30T11:41:48;15;15;
82151;PMS5003;71721;47.904;-122.188;2023-08-30T11:44:13;11;11;
82151;PMS5003;71721;47.904;-122.188;2023-08-30T11:46:39;12;11;
82151;PMS5003;71721;47.904;-122.188;2023-08-30T11:49:04;10;10;
82151;PMS5003;71721;47.904;-122.188;2023-08-30T11:51:34;13;12;
82151;PMS5003;71721;47.904;-122.188;2023-08-30T11:53:55;14;14;
82151;PMS5003;71721;47.904;-122.188;2023-08-30T11:56:20;11;10;
82151;PMS5003;71721;47.904;-122.188;2023-08-30T11:58:45;11;11;
82151;PMS5003;71721;47.904;-122.188;2023-08-30T12:01:10;12;11;
82151;PMS5003;71721;47.904;-122.188;2023-08-30T12:03:37;11;10;
82151;PMS5003;71721;47.904;-122.188;2023-08-30T12:06:01;11;11;
82151;PMS5003;71721;47.904;-122.188;2023-08-30T12:08:27;13;12;
82151;PMS5003;71721;47.904;-122.188;2023-08-30T12:10:52;13;13;
82151;PMS5003;71721;47.904;-122.188;2023-08-30T12:13:21;14;14;
82151;PMS5003;71721;47.904;-122.188;2023-08-30T12:15:43;13;13;
82151;PMS5003;71721;47.904;-122.188;2023-08-30T12:18:09;13;13;
82151;PMS5003;71721;47.904;-122.188;2023-08-30T12:20:34;13;12;
82151;PMS5003;71721;47.904;-122.188;2023-08-30T12:22:59;12;11;
82151;PMS5003;71721;47.904;-122.188;2023-08-30T12:25:25;12;12;
82151;PMS5003;71721;47.904;-122.188;2023-08-30T12:27:50;13;11;
82151;PMS5003;71721;47.904;-122.188;2023-08-30T12:30:16;13;13;
82151;PMS5003;71721;47.904;-122.188;2023-08-30T12:32:41;12;12;
82151;PMS5003;71721;47.904;-122.188;2023-08-30T12:35:07;12;12;
82151;PMS5003;71721;47.904;-122.188;2023-08-30T12:37:32;13;12;
82151;PMS5003;71721;47.904;-122.188;2023-08-30T12:39:57;13;13;
82151;PMS5003;71721;47.904;-122.188;2023-08-30T12:42:27;11;11;
82151;PMS5003;71721;47.904;-122.188;2023-08-30T12:44:47;10;9;
82151;PMS5003;71721;47.904;-122.188;2023-08-30T12:47:13;12;12;
82151;PMS5003;71721;47.904;-122.188;2023-08-30T12:49:38;12;12;
82151;PMS5003;71721;47.904;-122.188;2023-08-30T12:52:04;12;12;
82151;PMS5003;71721;47.904;-122.188;2023-08-30T12:54:28;12;12;
82151;PMS5003;71721;47.904;-122.188;2023-08-30T12:56:54;13;12;
82151;PMS5003;71721;47.904;-122.188;2023-08-30T12:59:24;13;12;
82151;PMS5003;71721;47.904;-122.188;2023-08-30T13:01:44;12;12;
82151;PMS5003;71721;47.904;-122.188;2023-08-30T13:04:10;16;16;
82151;PMS5003;71721;47.904;-122.188;2023-08-30T13:06:35;12;12;
82151;PMS5003;71721;47.904;-122.188;2023-08-30T13:09:01;15;14;
82151;PMS5003;71721;47.904;-122.188;2023-08-30T13:11:27;12;12;
82151;PMS5003;71721;47.904;-122.188;2023-08-30T13:13:52;13;13;
82151;PMS5003;71721;47.904;-122.188;2023-08-30T13:16:17;12;12;
82151;PMS5003;71721;47.904;-122.188;2023-08-30T13:18:43;14;14;
82151;PMS5003;71721;47.904;-122.188;2023-08-30T13:21:21;18;18;
82151;PMS5003;71721;47.904;-122.188;2023-08-30T13:23:35;15;15;
82151;PMS5003;71721;47.904;-122.188;2023-08-30T13:25:59;13;13;
82151;PMS5003;71721;47.904;-122.188;2023-08-30T13:28:24;15;14;
82151;PMS5003;71721;47.904;-122.188;2023-08-30T13:30:49;12;10;
82151;PMS5003;71721;47.904;-122.188;2023-08-30T13:33:14;15;14;
82151;PMS5003;71721;47.904;-122.188;2023-08-30T13:35:40;18;17;
82151;PMS5003;71721;47.904;-122.188;2023-08-30T13:38:06;15;15;
82151;PMS5003;71721;47.904;-122.188;2023-08-30T13:40:30;18;18;
82151;PMS5003;71721;47.904;-122.188;2023-08-30T13:42:56;13;12;
82151;PMS5003;71721;47.904;-122.188;2023-08-30T13:45:21;16;15;
82151;PMS5003;71721;47.904;-122.188;2023-08-30T13:47:48;16;15;
82151;PMS5003;71721;47.904;-122.188;2023-08-30T13:50:11;16;14;
82151;PMS5003;71721;47.904;-122.188;2023-08-30T13:52:36;17;17;
82151;PMS5003;71721;47.904;-122.188;2023-08-30T13:55:02;14;14;
82151;PMS5003;71721;47.904;-122.188;2023-08-30T13:57:28;14;14;
82151;PMS5003;71721;47.904;-122.188;2023-08-30T13:59:53;20;17;
82151;PMS5003;71721;47.904;-122.188;2023-08-30T14:02:18;15;15;
82151;PMS5003;71721;47.904;-122.188;2023-08-30T14:04:43;16;15;
82151;PMS5003;71721;47.904;-122.188;2023-08-30T14:07:09;15;15;
82151;PMS5003;71721;47.904;-122.188;2023-08-30T14:09:40;15;14;
82151;PMS5003;71721;47.904;-122.188;2023-08-30T14:12:01;17;17;
82151;PMS5003;71721;47.904;-122.188;2023-08-30T14:14:25;15;15;
82151;PMS5003;71721;47.904;-122.188;2023-08-30T14:16:54;15;14;
82151;PMS5003;71721;47.904;-122.188;2023-08-30T14:19:16;17;15;
82151;PMS5003;71721;47.904;-122.188;2023-08-30T14:21:41;10;10;
82151;PMS5003;71721;47.904;-122.188;2023-08-30T14:24:06;10;10;
82151;PMS5003;71721;47.904;-122.188;2023-08-30T14:26:32;11;10;
82151;PMS5003;71721;47.904;-122.188;2023-08-30T14:28:56;10;9;
82151;PMS5003;71721;47.904;-122.188;2023-08-30T14:31:22;9;9;
82151;PMS5003;71721;47.904;-122.188;2023-08-30T14:33:47;11;10;
82151;PMS5003;71721;47.904;-122.188;2023-08-30T14:36:13;12;11;
82151;PMS5003;71721;47.904;-122.188;2023-08-30T14:38:39;14;11;
82151;PMS5003;71721;47.904;-122.188;2023-08-30T14:41:03;10;10;
82151;PMS5003;71721;47.904;-122.188;2023-08-30T14:43:29;10;10;
82151;PMS5003;71721;47.904;-122.188;2023-08-30T14:45:59;13;13;
82151;PMS5003;71721;47.904;-122.188;2023-08-30T14:48:20;13;13;
82151;PMS5003;71721;47.904;-122.188;2023-08-30T14:50:49;10;10;
82151;PMS5003;71721;47.904;-122.188;2023-08-30T14:53:10;15;14;
82151;PMS5003;71721;47.904;-122.188;2023-08-30T14:55:36;13;11;
82151;PMS5003;71721;47.904;-122.188;2023-08-30T14:58:01;13;12;
82151;PMS5003;71721;47.904;-122.188;2023-08-30T15:00:26;13;13;
82151;PMS5003;71721;47.904;-122.188;2023-08-30T15:02:52;12;11;
82151;PMS5003;71721;47.904;-122.188;2023-08-30T15:05:17;14;14;
82151;PMS5003;71721;47.904;-122.188;2023-08-30T15:07:43;10;10;
82151;PMS5003;71721;47.904;-122.188;2023-08-30T15:10:09;13;13;
82151;PMS5003;71721;47.904;-122.188;2023-08-30T15:12:33;11;11;
82151;PMS5003;71721;47.904;-122.188;2023-08-30T15:14:58;17;17;
82151;PMS5003;71721;47.904;-122.188;2023-08-30T15:17:25;15;15;
82151;PMS5003;71721;47.904;-122.188;2023-08-30T15:19:50;15;15;
82151;PMS5003;71721;47.904;-122.188;2023-08-30T15:22:15;15;15;
82151;PMS5003;71721;47.904;-122.188;2023-08-30T15:24:40;17;15;
82151;PMS5003;71721;47.904;-122.188;2023-08-30T15:27:06;16;16;
82151;PMS5003;71721;47.904;-122.188;2023-08-30T15:29:31;21;20;
82151;PMS5003;71721;47.904;-122.188;2023-08-30T15:31:56;14;14;
82151;PMS5003;71721;47.904;-122.188;2023-08-30T15:34:21;14;14;
82151;PMS5003;71721;47.904;-122.188;2023-08-30T15:36:47;15;14;